Station 46013 (LLNR 390) - BODEGA BAY - 48NM NW of San Francisco, CA Image indicating link to RSS feed of recent meteorological observations for station 46013


Conditions at 46013 as of
(3:50 am PDT)
1050 GMT on 09/01/2026:
     

Click on the graph icon in the table below to see a time series plot of the last five days of that observation.

5-day plot - Wind Direction Wind Direction (WDIR):WSW ( 250 deg true )
5-day plot - Wind Speed Wind Speed (WSPD): 5.8 kts
5-day plot - Wind Gust Wind Gust (GST): 5.8 kts
5-day plot - Wave Height Wave Height (WVHT): 3.6 ft
5-day plot - Dominant Wave Period Dominant Wave Period (DPD): 14 sec
5-day plot - Average Wave Period Average Period (APD): 6.4 sec
5-day plot - Mean Wave Direction Mean Wave Direction (MWD):SSW ( 203 deg true )
5-day plot - Atmospheric Pressure Atmospheric Pressure (PRES):29.93 in
5-day plot - Air Temperature Air Temperature (ATMP): 55.8 °F
5-day plot - Dew Point Dew Point (DEWP): 55.2 °F
5-day plot - Wind Speed at 10 Meters Wind Speed at 10 meters (WSPD10M): 5.8 kts
5-day plot - Wind Speed at 20 Meters Wind Speed at 20 meters (WSPD20M): 5.8 kts
5-day plot -  Wind Speed, Wind Gust and Atmospheric Pressure Combined plot of Wind Speed, Gust, and Air Pressure
Supplemental Measurements
Lowest 1-minute Pressure
Time (PDT)Pressure
3:49 am29.93 in
Highest 1-minute Wind Speed
Time (PDT)5-day plot - 1-Minute Wind Speed WSPD 5-day plot - 1-Minute Wind Direction WDIR
3:44 am 5.8 kts W ( 260 deg true )
Previous observations
TIME
(PDT)
5-day plot - Wind Direction
WDIR
 
5-day plot - Wind Speed
WSPD
kts
5-day plot - Wind Gust
GST
kts
5-day plot - Wave Height
WVHT
ft
5-day plot - Dominant Wave Period
DPD
sec
5-day plot - Average Wave Period
APD
sec
5-day plot - Mean Wave Direction
MWD
 
5-day plot - Atmospheric Pressure
PRES
in
5-day plot - Pressure Tendency
PTDY
in
5-day plot - Air Temperature
ATMP
°F
5-day plot - Water Temperature
WTMP
°F
5-day plot - Dew Point
DEWP
°F
5-day plot - Salinity
SAL
psu
5-day plot - Visibility
VIS
nmi
5-day plot - Tide (above MLLW)
TIDE
ft
2026-09-01 03:40 am W 5.8 7.8----29.93- 55.8- 55.2---
2026-09-01 03:30 am W 7.8 7.8----29.94- 55.9- 55.4---
2026-09-01 03:20 am W 7.8 7.8 3.3 146.7SSW29.94- 55.9- 55.4---
2026-09-01 03:10 am W 7.8 7.8 3.3-6.7SSW29.94- 55.9- 55.4---
2026-09-01 03:00 am W 7.8 7.8----29.93+0.00 55.9- 55.4---
2026-09-01 02:50 amWSW 7.8 7.8 3.6 147.0 S29.93- 55.8- 55.2---
2026-09-01 02:40 amWSW 7.8 9.7----29.93- 55.9- 55.4---
2026-09-01 02:30 amWSW 7.8 9.7----29.93- 55.8- 55.2---
2026-09-01 02:20 amWSW 5.8 7.8 3.0 146.1 S29.93- 55.6- 55.0---
2026-09-01 02:10 amWSW 5.8 7.8----29.93- 55.6- 55.0---
2026-09-01 02:00 amWSW 5.8 7.8----29.93+0.00 55.8- 55.2---
2026-09-01 01:50 am W 5.8 7.8 3.3 146.3 S29.93- 55.9- 55.4---
2026-09-01 01:40 am W 5.8 7.8----29.93- 56.1- 55.6---
2026-09-01 01:30 am W 5.8 7.8----29.92- 55.9- 55.4---
2026-09-01 01:20 am W 7.8 7.8 3.0 146.0SSW29.93- 55.9- 55.4---
2026-09-01 01:10 am W 7.8 7.8----29.93- 55.9- 55.4---
2026-09-01 01:00 am W 5.8 7.8----29.93-0.01 56.1- 55.6---
2026-09-01 12:50 am W 5.8 7.8 3.3 136.1 E29.92- 56.1- 55.6---
2026-09-01 12:40 am W 7.8 7.8----29.92- 56.3- 55.8---
2026-09-01 12:30 am W 5.8 7.8----29.93- 56.1- 55.6---
2026-09-01 12:20 am W 5.8 7.8 3.3 145.9 S29.93- 56.1- 55.6---
2026-09-01 12:10 am W 7.8 7.8 3.3-5.9 S29.92- 56.3- 55.8---
2026-09-01 12:00 am W 7.8 7.8----29.93+0.00------
2026-08-31 11:50 pm W 7.8 9.7 3.3 155.8SSW29.92- 56.3- 55.8---
2026-08-31 11:40 pm W 7.8 7.8 3.3-5.8SSW29.92- 56.3- 55.8---
2026-08-31 11:30 pm W 7.8 7.8----29.92- 56.3- 55.8---
2026-08-31 11:20 pm W 5.8 7.8 3.3 145.7 SW29.93- 56.1- 55.6---
2026-08-31 11:10 pm W 5.8 7.8 3.3-5.7 SW29.93- 56.1- 55.6---
2026-08-31 11:00 pm W 7.8 7.8----29.93+0.01 56.3- 55.8---
2026-08-31 10:50 pm W 7.8 9.7 3.3 145.6 SW29.93- 56.5- 55.9---
2026-08-31 10:40 pm W 9.7 9.7----29.94- 56.7- 56.1---
2026-08-31 10:30 pm W 7.8 9.7----29.94- 56.5- 55.9---
2026-08-31 10:20 pm W 7.8 9.7 3.3 145.8 S29.94- 56.7- 56.1---
2026-08-31 10:10 pm W 7.8 9.7 3.3-5.8 S29.94- 56.7- 55.9---
2026-08-31 10:00 pm W 7.8 9.7----29.94+0.02 56.7- 55.9---
2026-08-31 09:50 pm W 9.7 11.7 3.6 146.0SSE29.93- 56.7- 55.9---
2026-08-31 09:40 pm W 9.7 9.7----29.93- 56.7- 55.9---
2026-08-31 09:30 pm W 7.8 9.7----29.93- 56.7- 55.9---
2026-08-31 09:20 pm W 7.8 9.7 3.3 145.9 SW29.93- 56.7- 55.9---
2026-08-31 09:10 pm W 7.8 9.7 3.3-5.9 SW29.93- 56.7- 55.9---
2026-08-31 09:00 pm W 9.7 9.7----29.93+0.01 56.8- 56.1---
2026-08-31 08:50 pm W 9.7 11.7 3.6 146.1SSE29.93- 56.8- 56.1---
2026-08-31 08:40 pm W 7.8 9.7----29.93- 56.7- 55.9---
2026-08-31 08:30 pm W 7.8 9.7----29.92- 56.7- 55.9---
2026-08-31 08:20 pm W 9.7 9.7 3.6 146.1 S29.92- 56.8- 56.1---
2026-08-31 08:10 pm W 9.7 11.7 3.6-6.1 S29.92- 56.8- 56.1---
2026-08-31 08:00 pmWSW 7.8 9.7----29.92-0.01 56.8- 56.1---
2026-08-31 07:50 pmWSW 7.8 9.7 3.3 145.8 SW29.91- 56.8- 56.1---
2026-08-31 07:40 pm W 7.8 11.7----29.91- 57.0- 56.3---
2026-08-31 07:30 pm W 7.8 9.7----29.91- 56.8- 56.1---
2026-08-31 07:20 pm W 7.8 9.7 3.6 146.3 SW29.91- 56.8- 56.1---
2026-08-31 07:10 pm W 9.7 11.7 3.6-6.3 SW29.92- 56.8- 56.1---
2026-08-31 07:00 pm W 9.7 9.7----29.91-0.01 56.8- 56.1---
2026-08-31 06:50 pm W 9.7 9.7 3.6 156.0SSE29.91- 56.7- 55.9---
2026-08-31 06:40 pm W 9.7 9.7 3.6-6.0SSE29.91- 56.8- 56.1---
2026-08-31 06:30 pm W 7.8 9.7----29.91- 56.7- 55.9---
2026-08-31 06:20 pm W 9.7 9.7 3.6 156.3SSE29.91- 56.8- 56.1---
2026-08-31 06:10 pmWSW 7.8 9.7 3.6-6.3SSE29.91- 56.7- 55.9---
2026-08-31 06:00 pmWSW 7.8 9.7----29.92-0.03 56.7- 56.1---
2026-08-31 05:50 pmWSW 7.8 7.8 3.6 146.0SSW29.92- 56.5- 55.9---
2026-08-31 05:40 pmWSW 5.8 7.8----29.92-------
2026-08-31 05:30 pmWSW 7.8 7.8----29.92- 56.5- 55.8---
2026-08-31 05:20 pmWSW 7.8 9.7 3.9 156.2 SW29.92- 56.7- 55.9---
2026-08-31 05:10 pmWSW 7.8 9.7 3.9-6.2 SW29.92- 56.7- 55.9---
2026-08-31 05:00 pmWSW 7.8 7.8----29.92-0.03 56.7- 55.9---
2026-08-31 04:50 pmWSW 7.8 7.8 3.6 156.0 S29.92- 56.7- 55.9---
2026-08-31 04:40 pmWSW 5.8 7.8 3.6-6.0 S29.92- 56.7- 55.8---
2026-08-31 03:40 pmWSW 5.8 5.8 4.3-6.0SSW29.93- 56.5- 55.4---
2026-08-31 03:30 pmWSW 5.8 5.8----29.93- 56.5- 55.2---
2026-08-31 03:20 pmWSW 5.8 7.8 4.3 85.9 NW29.94- 56.5- 55.4---
2026-08-31 03:10 pmWSW 5.8 7.8 4.3-5.9 NW29.94- 56.3- 55.2---
2026-08-31 03:00 pmWSW 5.8 7.8----29.94-0.01 56.1- 55.0---
2026-08-31 02:50 pmWSW 5.8 7.8 4.3 75.9 NW29.94- 56.1- 54.9---
2026-08-31 02:40 pmWSW 5.8 7.8----29.95- 56.1- 54.5---
2026-08-31 02:30 pmWSW 5.8 7.8----29.95- 56.3- 54.7---
2026-08-31 02:20 pmWSW 5.8 7.8 3.9 86.0WNW29.95- 56.3- 54.9---
2026-08-31 02:10 pmWSW 5.8 7.8----29.95- 56.3- 55.0---
2026-08-31 02:00 pmWSW 5.8 7.8----29.95+0.00 55.9- 54.9---
2026-08-31 01:50 pmWSW 5.8 7.8 4.3 156.1 S29.95- 55.9- 54.9---
2026-08-31 01:40 pmWSW 5.8 7.8 4.3-6.1 S29.96- 55.6- 54.5---
2026-08-31 01:30 pmWSW 5.8 7.8----29.95- 55.8- 54.7---
2026-08-31 01:20 pmWSW 5.8 7.8 4.3 146.0 W29.95- 55.8- 54.9---
2026-08-31 01:10 pmWSW 5.8 7.8----29.95- 55.6- 54.5---
2026-08-31 01:00 pmWSW 5.8 7.8----29.95+0.02 55.8- 54.9---
2026-08-31 12:50 pmWSW 5.8 7.8 4.3 156.0SSW29.95- 55.6- 54.5---
2026-08-31 12:40 pmWSW 5.8 5.8----29.95- 55.8- 54.7---
2026-08-31 12:30 pmWSW 5.8 5.8----29.95- 55.6- 54.5---
2026-08-31 12:20 pm W 5.8 7.8 4.6 86.0 NW29.95- 55.6- 54.5---
2026-08-31 12:10 pm W 5.8 7.8----29.95- 55.6- 54.5---
2026-08-31 12:00 pm W 5.8 7.8----29.96+0.02 55.4- 54.3---
2026-08-31 11:50 am W 5.8 7.8 4.6 156.4SSW29.96- 55.4- 54.3---
2026-08-31 11:40 am W 5.8 7.8----29.96- 55.4- 54.3---
2026-08-31 11:30 am W 5.8 7.8----29.96- 55.4- 54.3---
2026-08-31 11:20 am W 5.8 7.8 4.6 156.2SSW29.95- 55.4- 54.3---
2026-08-31 11:10 am W 5.8 7.8----29.95- 55.2- 54.0---
2026-08-31 11:00 am W 5.8 7.8----29.95+0.03 55.2- 54.0---
2026-08-31 10:50 amWNW 7.8 7.8 4.6 86.0 NW29.95- 55.4- 54.0---
2026-08-31 10:40 amWNW 7.8 9.7 4.6-6.0 NW29.95- 55.6- 54.1---
2026-08-31 10:30 amWNW 7.8 9.7----29.95- 55.6- 54.1---
2026-08-31 10:20 amWNW 7.8 9.7 4.6 85.9WNW29.94- 55.4- 53.8---
2026-08-31 10:10 am NW 7.8 11.7 4.6-5.9WNW29.94- 55.4- 54.0---
2026-08-31 10:00 am NW 7.8 9.7----29.93+0.03 55.2- 53.6---
2026-08-31 09:50 amNNW 9.7 11.7 4.9 156.0 S29.93- 55.4- 53.8---
2026-08-31 09:40 amNNW 9.7 13.6----29.93- 55.4- 54.0---
2026-08-31 09:30 am NW 7.8 9.7----29.93- 55.2- 53.8---
2026-08-31 09:20 amNNW 5.8 13.6 4.9 156.0 S29.93- 55.0- 53.8---
2026-08-31 09:10 amNNW 5.8 7.8----29.93- 55.0- 53.8---
2026-08-31 09:00 amNNW 5.8 7.8----29.93+0.05 54.9- 53.6---
2026-08-31 08:50 amNNW 5.8 9.7 5.2 86.1 NW29.93- 55.0- 54.0---
2026-08-31 08:40 am NW 5.8 7.8 5.2-6.1 NW29.93- 54.9- 53.8---
2026-08-31 08:30 am NW 5.8 7.8----29.93- 54.7- 53.8---
2026-08-31 08:20 am NW 5.8 7.8 5.2 86.0 NW29.92- 54.5- 53.6---
2026-08-31 08:10 amWNW 5.8 7.8 5.2-6.0 NW29.92- 54.0- 53.2---
2026-08-31 08:00 am NW 3.9 3.9----29.92+0.04 53.6- 52.9---
2026-08-31 07:50 amNNW 3.9 3.9 5.6 86.0 NW29.91- 53.8- 52.9---
2026-08-31 07:40 amNNW 3.9 5.8 5.6-6.0 NW29.92- 53.8- 52.9---
2026-08-31 07:30 am N 5.8 7.8----29.91- 53.8- 52.9---
2026-08-31 07:20 am N 7.8 9.7 5.6 85.8 NW29.91- 53.8- 52.9---
2026-08-31 07:10 am N 9.7 11.7 5.6-5.8 NW29.91- 53.8- 52.9---
2026-08-31 07:00 amNNW 11.7 13.6----29.90+0.02 53.8- 52.9---
2026-08-31 06:50 amNNW 11.7 15.5 5.9 85.7 NW29.90- 53.8- 52.9---
2026-08-31 06:40 amNNW 13.6 15.5----29.89- 53.6- 52.7---
2026-08-31 06:30 am NW 13.6 17.5----29.89- 53.6- 52.5---
2026-08-31 06:20 am NW 15.5 19.4 6.2 75.8 NW29.89- 53.8- 52.5---
2026-08-31 06:10 am NW 15.5 17.5 6.2-5.8 NW29.88- 54.0- 52.7---
2026-08-31 06:00 am NW 15.5 19.4----29.88+0.01 54.3- 52.9---
2026-08-31 05:50 am NW 15.5 19.4 6.2 85.6 NW29.87- 54.7- 53.1---
2026-08-31 05:40 amWNW 15.5 19.4----29.87- 55.2- 53.2---
2026-08-31 05:30 amWNW 17.5 19.4----29.87- 55.6- 53.6---
2026-08-31 05:20 am NW 15.5 19.4 6.6 85.6 NW29.88- 55.6- 53.6---
2026-08-31 05:10 am NW 17.5 25.3----29.88- 55.6- 53.4---
2026-08-31 05:00 am NW 17.5 23.3----29.88+0.01 55.6- 53.6---
2026-08-31 04:50 am NW 15.5 19.4 5.9 85.7 NW29.89- 55.6- 53.6---
2026-08-31 04:40 am NW 15.5 17.5----29.89- 55.6- 53.6---
2026-08-31 04:30 am NW 13.6 17.5----29.89- 55.6- 53.6---
2026-08-31 04:20 am NW 13.6 15.5 5.9 85.7 NW29.89- 55.6- 53.6---
2026-08-31 04:10 am NW 13.6 17.5 5.9-5.7 NW29.88- 55.4- 53.4---
2026-08-31 04:00 am NW 13.6 17.5----29.88+0.01 55.4- 53.4---
2026-08-31 03:50 am NW 13.6 15.5 5.6 85.7 NW29.88- 55.4- 53.4---

Wave Summary
for 46013 as of (3:40 am PDT)
1040 GMT on 09/01/2026:

These wave data are displayed in rounded times.

     

Click on the graph icon in the table below to see a time series plot of the last five days of that observation.

5-day plot - Significant Wave Height Significant Wave Height (WVHT): 3.6 ft
5-day plot - Swell Height Swell Height (SwH): 3.3 ft
5-day plot - Swell Period Swell Period (SwP): 13.8 sec
5-day plot - Swell Direction Swell Direction (SwD):SSW
5-day plot - Wind Wave Height Wind Wave Height (WWH): 1.3 ft
5-day plot - Wind Wave Period Wind Wave Period (WWP): 4.0 sec
5-day plot - Wind Wave Direction Wind Wave Direction (WWD): W
5-day plot - Wave Steepness Wave Steepness (STEEPNESS): SWELL
5-day plot - Average Wave Period Average Wave Period (APD): 6.4 sec
Previous observations
TIME
(PDT)
5-day plot - Wave Height
WVHT
ft
5-day plot - Swell Height
SwH
ft
5-day plot - Swell Period
SwP
sec
5-day plot - Swell Direction
SwD
 
5-day plot - Wind Wave Height
WWH
ft
5-day plot - Wind Wave Period
WWP
sec
5-day plot - Wind Wave Direction
WWD
 
5-day plot - Wave Steepness
STEEPNESS
 
5-day plot - Average Wave Period
APD
sec
2026-09-01 03:10 am 3.3 3.3 13.8SSW 1.0 3.1 W SWELL 6.7
2026-09-01 02:40 am 3.6 3.6 13.8 S 1.0 4.0 W SWELL 7.0
2026-09-01 02:10 am 3.0 3.0 13.8 S 1.0 3.7 W SWELL 6.1
2026-09-01 01:40 am 3.3 3.0 13.8 S 1.0 4.0 WNW SWELL 6.3
2026-09-01 01:10 am 3.0 2.6 13.8SSW 1.0 3.8 WNW SWELL 6.0
2026-09-01 12:40 am 3.3 3.3 12.9 E 1.0 3.7 WNW SWELL 6.1
2026-09-01 12:10 am 3.3 3.0 13.8 S 1.3 3.6 WNW SWELL 5.9
2026-08-31 11:40 pm 3.3 3.3 14.8SSW 1.3 3.7 WNW SWELL 5.8
2026-08-31 11:10 pm 3.3 3.3 13.8 SW 1.3 3.2 WNW SWELL 5.7
2026-08-31 10:40 pm 3.3 3.0 13.8 SW 1.3 3.6 W SWELL 5.6
2026-08-31 10:10 pm 3.3 3.0 13.8 S 1.3 3.8 W SWELL 5.8
2026-08-31 09:40 pm 3.6 3.3 13.8SSE 1.3 4.5 WNW SWELL 6.0
2026-08-31 09:10 pm 3.3 3.0 13.8 SW 1.3 3.8 W SWELL 5.9
2026-08-31 08:40 pm 3.6 3.3 13.8SSE 1.3 3.4 W SWELL 6.1
2026-08-31 08:10 pm 3.6 3.3 13.8 S 1.3 4.8 WNW SWELL 6.1
2026-08-31 07:40 pm 3.3 3.3 13.8 SW 1.3 4.0 W SWELL 5.8
2026-08-31 07:10 pm 3.6 3.3 13.8 SW 1.3 4.2 WNW SWELL 6.3
2026-08-31 06:40 pm 3.6 3.3 14.8SSE 1.3 4.2 W SWELL 6.0
2026-08-31 06:10 pm 3.6 3.6 14.8SSE 1.3 4.2 W SWELL 6.3
2026-08-31 05:40 pm 3.6 3.3 13.8SSW 1.3 3.6 W SWELL 6.0
2026-08-31 05:10 pm 3.9 3.6 14.8 SW 1.3 3.8 W SWELL 6.2
2026-08-31 04:40 pm 3.6 3.6 14.8 S 1.3 4.0 W SWELL 6.0
2026-08-31 03:40 pm 4.3 3.9 14.8SSW 1.3 4.0 W SWELL 6.0
2026-08-31 03:10 pm 4.3 3.9 7.7 NW 1.3 3.7 WNW AVERAGE 5.9
2026-08-31 02:40 pm 4.3 3.9 7.1 NW 1.3 3.8 W STEEP 5.9
2026-08-31 02:10 pm 3.9 3.9 7.7WNW 1.3 4.0 WNW AVERAGE 6.0
2026-08-31 01:40 pm 4.3 4.3 14.8 S 1.3 3.6 W SWELL 6.1
2026-08-31 01:10 pm 4.3 4.3 13.8 W 1.3 3.8 WNW SWELL 6.0
2026-08-31 12:40 pm 4.3 3.9 14.8SSW 1.3 3.3 WNW SWELL 6.0
2026-08-31 12:10 pm 4.6 4.3 7.7 NW 1.3 3.6 WNW AVERAGE 6.0
2026-08-31 11:40 am 4.6 4.6 14.8SSW 1.3 3.6 WNW SWELL 6.4
2026-08-31 11:10 am 4.6 4.6 14.8SSW 1.3 3.7 NW SWELL 6.2
2026-08-31 10:40 am 4.6 4.6 7.7 NW 1.3 3.6 WNW AVERAGE 6.0
2026-08-31 10:10 am 4.6 4.3 7.7WNW 1.3 3.7 WNW AVERAGE 5.9
2026-08-31 09:40 am 4.9 4.6 14.8 S 1.6 4.3 WNW SWELL 6.0
2026-08-31 09:10 am 4.9 4.6 14.8 S 1.6 3.8 WNW SWELL 6.0
2026-08-31 08:40 am 5.2 4.9 8.3 NW 1.6 3.6 W AVERAGE 6.1
2026-08-31 08:10 am 5.2 4.9 7.7 NW 1.6 4.0 WNW AVERAGE 6.0
2026-08-31 07:40 am 5.6 5.2 8.3 NW 1.6 3.8 WNW AVERAGE 6.0
2026-08-31 07:10 am 5.6 5.2 8.3 NW 2.3 3.7 NW AVERAGE 5.8
2026-08-31 06:40 am 5.9 4.3 8.3 NW 3.9 6.2 WNW AVERAGE 5.7
2026-08-31 06:10 am 6.2 3.9 8.3 NW 4.9 7.1 NW STEEP 5.8
2026-08-31 05:40 am 6.2 3.3 14.8 SW 5.2 7.7 NW STEEP 5.6
2026-08-31 05:10 am 6.6 2.6 14.8SSW 5.9 8.3 NW AVERAGE 5.6
2026-08-31 04:40 am 5.9 3.9 8.3 NW 4.3 5.6 WNW AVERAGE 5.7
2026-08-31 04:10 am 5.9 4.6 8.3 NW 3.6 5.9 WNW AVERAGE 5.7

Plot icon Plot of wave energy versus frequency (and period)